Mombaca, Brazil
Current Conditions -  °F | °C
As of 5:00 PM on Saturday 20 Dec 2014 (Local Time) from SBJU Reporting Station
Few Clouds Few Clouds  
Wind Chill: 91°   Ceiling: Unl
Heat Index: 95°   Visibility: 6mi
Dew Point: 68°   Wind: 5mph
Humidity: 46%   Direction: 100°E
Pressure: 29.94"   Gusts: NA
Location:  5.74°S, 39.63°W
Report Text: SBJU 202000Z 10004KT 9999 FEW023 33/20 Q1014
Loading
Personal Weather Stations






























Interactive Weather Map New forecast layout! Learn more

10-Day Weather Forecast

Advertisements
Track Severe Weather on mobile